METAR Data
IDs: Format: Raw Decoded Include TAF

Data at: 0132 UTC 19 Oct 2021

KBPK 190053Z AUTO 17004KT 10SM CLR 15/06 A3009 RMK AO2 SLP187 T01500061
KBPK 182353Z AUTO 17003KT 10SM CLR 17/06 A3008 RMK AO2 SLP182 T01720061 10228 20172 56010
KBPK 182253Z AUTO 00000KT 10SM CLR 19/06 A3009 RMK AO2 SLP184 T01940061
KBPK 182153Z AUTO 22007KT 10SM CLR 22/06 A3009 RMK AO2 SLP186 T02170056
KBPK 182053Z AUTO 22007KT 10SM CLR 22/06 A3011 RMK AO2 SLP190 T02220056 56025
KBPK 181953Z AUTO 21004KT 10SM CLR 22/06 A3012 RMK AO2 SLP195 T02220056
KBPK 181853Z AUTO VRB05KT 10SM CLR 22/06 A3015 RMK AO2 SLP204 T02220061
KBPK 181753Z AUTO VRB04KT 10SM CLR 21/06 A3018 RMK AO2 SLP216 T02060056 10217 20067 58014
KBPK 181653Z AUTO 21006KT 10SM CLR 19/06 A3021 RMK AO2 SLP225 T01940061
KBPK 181553Z AUTO 00000KT 10SM CLR 16/08 A3022 RMK AO2 SLP231 T01610078
KBPK 181453Z AUTO 00000KT 10SM CLR 13/07 A3022 RMK AO2 SLP232 T01330072 51010
KBPK 181353Z AUTO 00000KT 10SM CLR 11/08 A3022 RMK AO2 SLP231 T01110083
KBPK 181253Z AUTO 00000KT 10SM CLR 08/06 A3020 RMK AO2 SLP225 T00780061 TSNO
KBPK 181153Z AUTO 00000KT 10SM CLR 07/06 A3019 RMK AO2 SLP223 T00720056 10111 20067 53006 TSNO
KBPK 181053Z AUTO 00000KT 10SM CLR 08/06 A3018 RMK AO2 SLP219 T00830061 TSNO
KBPK 180953Z AUTO 00000KT 10SM CLR 08/06 A3017 RMK AO2 SLP214 T00780056 TSNO
KBPK 180853Z AUTO 00000KT 10SM CLR 08/06 A3017 RMK AO2 SLP215 T00830056 58005 TSNO
KBPK 180753Z AUTO 00000KT 10SM CLR 08/06 A3018 RMK AO2 SLP215 T00830061 TSNO
KBPK 180653Z AUTO 21003KT 10SM CLR 09/06 A3019 RMK AO2 SLP218 T00940056 TSNO
KBPK 180553Z AUTO 00000KT 10SM CLR 11/06 A3019 RMK AO2 SLP219 T01110056 10156 20106 402220056 58007 TSNO
KBPK 180453Z AUTO 00000KT 10SM CLR 12/05 A3019 RMK AO2 SLP220 T01170050 TSNO
KBPK 180353Z AUTO 19003KT 10SM CLR 12/06 A3021 RMK AO2 SLP227 T01220056 TSNO
KBPK 180253Z AUTO 00000KT 10SM CLR 12/05 A3021 RMK AO2 SLP229 T01220050 53005 TSNO
KBPK 180153Z AUTO 16003KT 10SM CLR 14/05 A3020 RMK AO2 SLP226 T01390050 TSNO
KBPK 180053Z AUTO 17003KT 10SM CLR 15/05 A3020 RMK AO2 SLP225 T01500050 TSNO $
KBPK 172353Z AUTO 00000KT 10SM CLR 16/06 A3020 RMK AO2 SLP224 T01560061 10222 20144 56007 TSNO $
KBPK 172253Z AUTO 00000KT 10SM CLR 18/07 A3020 RMK AO2 SLP224 T01780067 TSNO $
KBPK 172153Z AUTO 00000KT 10SM CLR 21/03 A3021 RMK AO2 SLP226 T02060033 TSNO $
KBPK 172053Z AUTO 00000KT 10SM CLR 21/04 A3022 RMK AO2 SLP230 T02060039 56023 TSNO $
KBPK 171953Z AUTO 00000KT 10SM CLR 21/02 A3023 RMK AO2 SLP233 T02110022 TSNO $
KBPK 171853Z AUTO 00000KT 10SM CLR 21/M01 A3025 RMK AO2 SLP242 T02111006 TSNO $
KBPK 171753Z AUTO VRB03KT 10SM CLR 19/02 A3028 RMK AO2 SLP253 T01940017 10194 20072 58015 TSNO $
KBPK 171653Z AUTO VRB04KT 10SM CLR 18/03 A3031 RMK AO2 SLP262 T01780033 TSNO $
KBPK 171553Z AUTO 00000KT 10SM CLR 14/07 A3033 RMK AO2 SLP269 T01440072 TSNO $
KBPK 171453Z AUTO 00000KT 10SM CLR 10/09 A3033 RMK AO2 SLP271 T01000089 53006 TSNO $
KBPK 171438Z AUTO 00000KT 10SM SCT002 09/08 A3033 RMK AO2 T00890078 TSNO $
KBPK 171426Z AUTO 00000KT 10SM BKN002 09/08 A3033 RMK AO2 T00890083 TSNO $
KBPK 171419Z AUTO 00000KT 2 1/2SM BR OVC002 08/08 A3033 RMK AO2 T00830083 TSNO $
KBPK 171414Z AUTO 00000KT 3/4SM BR VV002 08/08 A3033 RMK AO2 T00780078 TSNO $
KBPK 171353Z AUTO 00000KT 1/4SM FG VV002 08/08 A3033 RMK AO2 SLP271 T00780078 TSNO $